Kadoka, South Dakota
Current Conditions -  °F | °C
As of 7:55 PM on Friday 21 Nov 2014 (Local Time) from KPHP Reporting Station
Clear Clear  
Wind Chill: 29°   Ceiling: Unl
Heat Index: 35°   Visibility: 10mi
Dew Point: 27°   Wind: 8mph
Humidity: 72%   Direction: 280°W
Pressure: 29.84"   Gusts: NA
Location:  43.83°N, 101.51°W
Report Text: KPHP 220255Z AUTO 28007KT 10SM CLR 02/M03 A2984 RMK AO2 SLP122 T00171028 53001 FZRANO $
Loading
Personal Weather Stations






























Interactive Weather Map New forecast layout! Learn more

10-Day Weather Forecast

Advertisements
Track Severe Weather on mobile